Terminal Aerodrome Forecast
Issued by NWS

Current Version | Previous Version | Graphics & Text | Print | Product List | Glossary On
Versions: 1 2 3 4 5 6 7 8 9 10 11 12 13 14 15 16 17 18 19 20 21 22 23
000
FTUS41 KILN 202331
TAFLUK
TAF
KLUK 202331Z 2100/2124 21013KT P6SM BKN250
     FM210900 20014G20KT P6SM VCSH OVC025
     FM211300 27012KT 5SM -SHRA BR VCTS OVC015CB
     FM211500 33009KT 2SM -SHRA BR OVC009
     FM211900 36009KT P6SM -SHRA OVC009=

USA.gov is the U.S. government's official web portal to all federal, state and local government web resources and services.